Overton RPC :: 100A

liberation: 2020-09-26  08:00     latitude: 36.107992     longitude: -86.925452 43 birds
# LOFT PRING MILES ARRIVAL SPEED ToWin
1 LET IT GO LOFT IF20-ORP-0129 116.698 2020-09-26 11:41:20.399 927.935 00:00:00
2 LET IT GO LOFT IF20-ORP-0112 116.698 2020-09-26 11:42:35.860 922.693 00:01:15
3 LET IT GO LOFT IF20-VALH-0092 116.698 2020-09-26 11:42:59.285 921.077 00:01:39
4 VALHALLA LOFTS IF20-VALH-0009 93.284 2020-09-26 11:03:46.513 893.377 00:06:51
5 VALHALLA LOFTS IF20-VALH-0087 93.284 2020-09-26 11:03:46.911 893.345 00:06:51
6 VALHALLA LOFTS IF20-VALH-0085 93.284 2020-09-26 11:03:49.071 893.170 00:06:53
7 VALHALLA LOFTS IF20-VALH-0042 93.284 2020-09-26 11:03:50.891 893.023 00:06:55
8 VALHALLA LOFTS IF20-VALH-0093 93.284 2020-09-26 11:04:12.375 891.287 00:07:17
9 VALHALLA LOFTS IF20-VALH-0094 93.284 2020-09-26 11:04:13.429 891.202 00:07:18
10 VALHALLA LOFTS IF20-VALH-0100 93.284 2020-09-26 11:04:14.277 891.134 00:07:18
11 VALHALLA LOFTS IF20-VALH-0044 93.284 2020-09-26 11:04:16.852 890.926 00:07:21
12 VALHALLA LOFTS IF20-ORP-0020 93.284 2020-09-26 11:04:52.631 888.052 00:07:57
13 VALHALLA LOFTS IF20-ORP-0022 93.284 2020-09-26 11:05:06.011 886.982 00:08:10
14 VALHALLA LOFTS IF20-VALH-0066 93.284 2020-09-26 11:05:07.604 886.855 00:08:12
15 VALHALLA LOFTS IF20-VALH-0024 93.284 2020-09-26 11:05:07.941 886.828 00:08:12
16 VALHALLA LOFTS IF20-VALH-0048 93.284 2020-09-26 11:05:12.263 886.483 00:08:16
17 VALHALLA LOFTS IF20-VALH-0023 93.284 2020-09-26 11:05:14.604 886.297 00:08:19
18 VALHALLA LOFTS IF20-VALH-0017 93.284 2020-09-26 11:05:16.592 886.138 00:08:21
19 VALHALLA LOFTS IF20-ORP-0021 93.284 2020-09-26 11:05:20.813 885.802 00:08:25
20 VALHALLA LOFTS IF20-VALH-0096 93.284 2020-09-26 11:05:35.749 884.614 00:08:40
21 VALHALLA LOFTS IF20-VALH-0007 93.284 2020-09-26 11:05:47.287 883.698 00:08:51
22 VALHALLA LOFTS IF20-VALH-0001 93.284 2020-09-26 11:08:33.673 870.702 00:11:38
23 VALHALLA LOFTS IF20-VALH-0027 93.284 2020-09-26 11:08:49.011 869.523 00:11:53
24 VALHALLA LOFTS IF20-VALH-0060 93.284 2020-09-26 11:09:04.327 868.349 00:12:08
25 VALHALLA LOFTS IF20-VALH-0029 93.284 2020-09-26 11:09:11.944 867.767 00:12:16
26 VALHALLA LOFTS IF20-VALH-0021 93.284 2020-09-26 11:09:15.689 867.480 00:12:20
27 VALHALLA LOFTS IF20-VALH-0095 93.284 2020-09-26 11:09:42.288 865.453 00:12:46
28 VALHALLA LOFTS IF20-VALH-0088 93.284 2020-09-26 11:14:30.075 844.111 00:17:34
29 VALHALLA LOFTS IF20-VALH-0025 93.284 2020-09-26 11:53:16.264 703.819 00:56:20
30 VALHALLA LOFTS IF20-VALH-0077 93.284 2020-09-26 11:56:59.952 692.748 01:00:04
31 LET IT GO LOFT IF20-ORP-0126 116.698 2020-09-26 13:04:04.650 675.450 01:22:44
32 LET IT GO LOFT IF20-ORP-0141 116.698 2020-09-26 13:04:05.956 675.402 01:22:46
33 LET IT GO LOFT IF20-ORP-0122 116.698 2020-09-26 13:04:07.410 675.348 01:22:47
34 LET IT GO LOFT IF20-ORP-0131 116.698 2020-09-26 13:04:20.179 674.876 01:23:00
35 LET IT GO LOFT IF20-ORP-0128 116.698 2020-09-26 13:04:40.462 674.127 01:23:20
36 LET IT GO LOFT IF20-ORP-0106 116.698 2020-09-26 13:33:57.854 615.004 01:52:37
37 VALHALLA LOFTS IF20-VALH-0098 93.284 2020-09-26 14:53:36.646 396.945 03:56:41
38 VALHALLA LOFTS IF20-VALH-0089 93.284 2020-09-26 16:26:36.460 324.078 05:29:41
LET IT GO LOFT IF20-ORP-0120 0 0000-00-00 00:00:00.000 0.000 00:00:00
VALHALLA LOFTS IF20-VALH-0005 0 0000-00-00 00:00:00.000 0.000 00:00:00
VALHALLA LOFTS IF20-VALH-0013 0 0000-00-00 00:00:00.000 0.000 00:00:00
VALHALLA LOFTS IF20-VALH-0049 0 0000-00-00 00:00:00.000 0.000 00:00:00
VALHALLA LOFTS IF20-VALH-0052 0 0000-00-00 00:00:00.000 0.000 00:00:00